MDT,Max TemperatureF,Mean TemperatureF,Min TemperatureF,Max Dew PointF,MeanDew PointF,Min DewpointF,Max Humidity, Mean Humidity, Min Humidity, Max Sea Level PressureIn, Mean Sea Level PressureIn, Min Sea Level PressureIn, Max VisibilityMiles, Mean VisibilityMiles, Min VisibilityMiles, Max Wind SpeedMPH, Mean Wind SpeedMPH, Max Gust SpeedMPH,PrecipitationIn, CloudCover, Events, WindDirDegrees
2013-10-1,75,62,49,51,43,35,93,57,32,29.98,29.88,29.71,10,10,10,17,11,24,0.00,0,,75
2013-10-2,81,64,46,57,52,44,96,70,36,29.86,29.79,29.69,10,10,10,9,5,,0.00,0,,128
2013-10-3,63,55,46,53,49,41,100,85,63,29.82,29.73,29.65,10,8,0,16,10,17,0.00,6,Fog,9
2013-10-4,53,43,33,52,40,24,100,80,44,30.14,29.84,29.61,10,6,0,38,17,47,0.01,4,Fog-Rain,330
2013-10-5,57,44,31,24,20,12,70,44,19,30.19,30.13,30.06,10,10,10,37,20,47,0.00,2,,321
2013-10-6,68,52,36,35,30,22,68,45,27,30.18,30.14,30.09,10,10,10,28,15,37,0.00,0,,324
2013-10-7,79,58,37,36,31,25,79,44,15,30.15,30.02,29.83,10,10,10,17,11,25,0.00,0,,205
2013-10-8,82,61,40,31,28,23,60,32,12,29.81,29.71,29.62,10,10,10,17,13,28,0.00,0,,188
2013-10-9,75,60,44,40,36,28,63,46,28,29.81,29.76,29.63,10,10,10,18,10,,0.00,0,,348
2013-10-10,81,60,39,47,40,32,93,58,23,29.83,29.65,29.46,10,9,5,38,14,52,0.11,1,Rain-Thunderstorm,219
2013-10-11,66,53,40,44,36,30,90,57,33,30.00,29.74,29.49,10,10,7,18,13,31,0.19,2,Rain,312
2013-10-12,59,51,42,43,39,36,96,72,45,30.21,30.15,30.01,10,10,10,15,6,17,0.01,6,Rain,133
2013-10-13,65,53,40,54,43,33,89,69,41,30.23,30.10,29.94,10,10,6,31,20,40,T,3,Rain,161
2013-10-14,67,52,36,55,46,30,94,77,32,30.07,29.88,29.70,10,10,5,39,23,50,0.08,4,Rain,226
2013-10-15,50,39,28,28,27,25,85,66,43,30.29,30.21,30.08,10,10,10,26,19,37,0.00,1,,332
2013-10-16,53,40,26,32,27,23,89,68,43,30.22,30.11,29.99,10,10,10,14,9,22,0.00,1,,247
2013-10-17,56,43,29,34,30,24,89,65,36,30.11,30.06,30.02,10,10,10,14,10,21,0.08,3,Rain,7
2013-10-18,45,37,29,36,30,25,100,87,49,30.21,30.14,30.06,10,6,1,25,10,31,0.14,6,Snow,346
2013-10-19,65,48,30,33,27,23,82,54,21,30.13,30.00,29.84,10,10,10,16,10,23,0.00,0,,252
2013-10-20,53,43,33,37,32,26,89,66,48,30.12,29.95,29.80,10,10,10,22,10,30,0.00,2,,321
2013-10-21,61,45,29,35,30,25,96,63,26,30.17,30.11,30.05,10,10,10,20,9,28,0.00,2,,276
2013-10-22,68,53,38,36,33,31,70,51,25,30.15,30.08,30.04,10,10,10,20,9,29,0.00,4,,286
2013-10-23,69,52,34,36,31,26,85,54,21,30.18,30.09,30.04,10,10,10,15,9,24,0.00,0,,1
2013-10-24,53,41,29,36,33,28,100,79,52,30.36,30.30,30.20,10,9,0,15,9,26,0.00,2,Fog,149
2013-10-25,66,49,32,38,34,30,92,67,34,30.30,30.16,30.04,10,10,9,16,12,,0.00,0,,209
2013-10-26,63,51,38,38,34,31,83,60,34,30.30,30.20,30.06,10,10,5,15,10,23,0.00,0,,336
2013-10-27,75,57,38,35,30,24,73,44,17,30.09,29.89,29.75,10,10,10,15,9,,0.00,0,,236
2013-10-28,43,39,35,34,32,27,96,80,60,30.08,29.98,29.76,10,8,2,21,11,25,0.00,6,,6
2013-10-29,49,42,35,36,35,32,100,92,63,30.06,30.00,29.92,10,4,0,13,8,,0.00,7,Fog,19
2013-10-30,59,47,34,39,35,32,97,79,39,29.96,29.86,29.74,10,7,0,14,8,,0.00,4,Fog,5
2013-10-31,59,45,31,36,26,21,83,55,24,29.83,29.78,29.71,10,10,10,24,12,32,T,1,,299